Circleville, West Virginia
Current Conditions -  °F | °C
As of 11:28 PM on Wednesday 26 Nov 2014 (Local Time) from KEKN Reporting Station
Haze Haze  
Wind Chill: 33°   Ceiling: 2100
Heat Index: 33°   Visibility: 3mi
Dew Point: 33°   Wind: 0mph
Humidity: 100%   Direction: NA
Pressure: 29.98"   Gusts: NA
Location:  38.67°N, 79.49°W
Report Text: KEKN 270428Z AUTO 00000KT 3SM BR SCT017 BKN021 01/01 A2998 RMK AO2 SNE23 P0000 T00060006 TSNO
Loading
Personal Weather Stations






























Interactive Weather Map New forecast layout! Learn more

10-Day Weather Forecast

Advertisements
Track Severe Weather on mobile